Nuuk, Greenland

7:05 AM -02 on May 25, 2017 (GMT -0200)
Fjeldvej | | Change Station

Elev 0 ft 64.17 °N, 51.73 °W | Updated 51 seconds ago

Light Snow
Light Snow
32.9 °F
Feels Like 33 °F
N
1.2
Wind Variable Wind from NNW
Gusts 2.5 mph

Today
High -- | Low -- °F
--% Chance of Precip.
Yesterday
High -- | Low -- °F
Precip. -- in
Pressure 29.98 in
Visibility 6.2 miles
Clouds Scattered Clouds 1200 ft
Mostly Cloudy 1500 ft
Overcast 2100 ft
Windchill 33 °F
Dew Point 28 °F
Humidity 83%
Rainfall 0.00 in
Snow Depth Not available.
3:40 AM 11:10 PM
Waning Crescent, 0% visible
METAR BGGH 250850Z 02001KT 9999 -SN SCT012 BKN015 OVC021 M00/M01 Q1015
Pressure 29.98 in
Visibility 6.2 miles
Clouds Scattered Clouds 1200 ft
Mostly Cloudy 1500 ft
Overcast 2100 ft
Windchill 33 °F
Dew Point 28 °F
Humidity 83%
Rainfall 0.00 in
Snow Depth Not available.
3:40 AM 11:10 PM
Waning Crescent, 0% visible
METAR BGGH 250850Z 02001KT 9999 -SN SCT012 BKN015 OVC021 M00/M01 Q1015

Get Severe Weather Alerts

Thanks for signing up!

Be on the lookout for a verification email in your inbox.

You'll start receiving the daily forecast at 6 AM.

×

10-Day Weather Forecast

×

Almanac

Astronomy

May. 25, 2017 Rise Set
Actual Time
Civil Twilight
Nautical Twilight
Astronomical Twilight
Moon
Length of Visible Light
Length of Day
Tomorrow will be .
, % of the Moon is Illuminated

Today's Extremes

Country Highs Country Lows

Community

WunderPhotos

Category 6

Welcome to Category 6. This is the collective home for Weather Underground's featured writeups by Dr. Jeff Masters (right), Bob Henson (left), Chris Burt, and other regular contributors.

Nearby

Air Quality

  Air Quality AQ Index Pollutant
Not available.

Snow Depth

Station Depth Elevation

Earthquake Activity

City Distance Mag. Time & Date
Minimum magnitude displayed is 2.5.

Coastal Water Temperatures

Place Temperature

Stations

Nearby Weather Stations

Station Location Temp. Windchill Dew Point Humidity Wind Precip. Elev Updated Type